Time;durP1;ratioP1;P1;durP2;ratioP2;P2;SDS_P1;SDS_P2;PMS_P1;PMS_P2;Temp;Humidity;BMP_temperature;BMP_pressure;BME280_temperature;BME280_humidity;BME280_pressure;Samples;Min_cycle;Max_cycle;Signal;HPM_P1;HPM_P2
2022/06/17 00:01:33;;;;;;;9.07;5.47;;;;;;;12.69;100.00;100475.73;1743145;81;21346;-58
2022/06/17 00:03:58;;;;;;;10.13;5.47;;;;;;;12.62;100.00;100473.10;1735963;80;24176;-57
2022/06/17 00:06:26;;;;;;;14.70;5.87;;;;;;;12.62;100.00;100471.79;1760386;80;21518;-56
2022/06/17 00:08:54;;;;;;;9.33;5.37;;;;;;;12.56;100.00;100475.96;1765282;80;21152;-56
2022/06/17 00:11:28;;;;;;;8.70;5.63;;;;;;;12.60;100.00;100476.39;1778205;80;21518;-56
2022/06/17 00:13:55;;;;;;;14.50;6.33;;;;;;;12.59;100.00;100480.02;1756801;80;21772;-60
2022/06/17 00:16:22;;;;;;;10.70;4.73;;;;;;;12.64;100.00;100485.47;1748023;81;21289;-56
2022/06/17 00:18:51;;;;;;;8.93;4.73;;;;;;;12.62;100.00;100483.05;1749136;80;21802;-57
2022/06/17 00:21:33;;;;;;;7.13;3.90;;;;;;;12.69;100.00;100478.35;1775106;80;21295;-56
2022/06/17 00:24:01;;;;;;;8.23;4.03;;;;;;;12.74;100.00;100479.91;1766355;80;21623;-56
2022/06/17 00:26:28;;;;;;;7.00;3.70;;;;;;;12.76;100.00;100482.62;1758549;80;21744;-57
2022/06/17 00:28:56;;;;;;;5.73;3.80;;;;;;;12.80;100.00;100478.63;1775881;80;21615;-57
2022/06/17 00:31:23;;;;;;;8.03;3.50;;;;;;;12.76;100.00;100479.20;1764224;80;21247;-58
2022/06/17 00:33:51;;;;;;;7.10;3.27;;;;;;;12.78;100.00;100473.30;1763368;80;21389;-56
2022/06/17 00:36:19;;;;;;;6.37;3.60;;;;;;;12.72;100.00;100472.24;1779449;80;21403;-61
2022/06/17 00:38:46;;;;;;;5.37;3.87;;;;;;;12.72;100.00;100474.86;1759077;80;21626;-56
2022/06/17 00:41:20;;;;;;;6.27;3.13;;;;;;;12.72;100.00;100468.31;1752724;80;21219;-58
2022/06/17 00:43:48;;;;;;;8.53;3.53;;;;;;;12.71;100.00;100471.94;1738736;81;21290;-60
2022/06/17 00:46:50;;;;;;;4.60;2.87;;;;;;;12.68;100.00;100465.78;1750427;80;21294;-60
2022/06/17 00:49:45;;;;;;;5.73;3.50;;;;;;;12.63;100.00;100472.89;1765433;80;21309;-57
2022/06/17 00:52:27;;;;;;;6.40;3.07;;;;;;;12.59;100.00;100472.16;1780580;80;21290;-58
2022/06/17 00:55:01;;;;;;;6.10;3.43;;;;;;;12.52;100.00;100477.84;1747849;81;21579;-64
2022/06/17 00:57:36;;;;;;;6.07;3.23;;;;;;;12.47;100.00;100476.31;1765602;81;21772;-55
2022/06/17 01:00:21;;;;;;;5.60;3.00;;;;;;;12.47;100.00;100473.70;1754569;80;21211;-58
2022/06/17 01:02:52;;;;;;;7.10;2.90;;;;;;;12.40;100.00;100466.59;1760703;80;21945;-56
2022/06/17 01:05:25;;;;;;;4.60;3.10;;;;;;;12.33;100.00;100472.27;1753039;80;21151;-57
2022/06/17 01:08:00;;;;;;;5.93;3.33;;;;;;;12.28;100.00;100466.81;1740954;81;21292;-59
2022/06/17 01:10:29;;;;;;;8.53;4.03;;;;;;;12.27;100.00;100465.17;1735260;81;21341;-65
2022/06/17 01:13:05;;;;;;;6.53;3.53;;;;;;;12.23;100.00;100464.44;1749096;80;21653;-57
2022/06/17 01:15:35;;;;;;;5.87;3.27;;;;;;;12.15;100.00;100466.69;1738591;80;21214;-58
2022/06/17 01:18:02;;;;;;;7.70;3.87;;;;;;;12.12;100.00;100460.52;1744868;81;21364;-58
2022/06/17 01:20:31;;;;;;;5.30;3.70;;;;;;;12.02;100.00;100468.70;1741499;81;21197;-58
2022/06/17 01:23:02;;;;;;;5.10;3.17;;;;;;;11.97;100.00;100470.23;1752985;81;21314;-58
2022/06/17 01:25:35;;;;;;;6.20;3.13;;;;;;;11.89;100.00;100473.30;1730940;82;21127;-58
2022/06/17 01:28:09;;;;;;;5.93;3.40;;;;;;;11.81;100.00;100468.14;1705738;82;21228;-56
2022/06/17 01:30:48;;;;;;;6.60;3.53;;;;;;;11.88;100.00;100472.97;1741306;81;21328;-57
2022/06/17 01:33:31;;;;;;;4.73;3.43;;;;;;;11.94;100.00;100468.83;1750690;81;21110;-57
2022/06/17 01:36:12;;;;;;;6.97;3.30;;;;;;;11.88;100.00;100470.86;1731136;81;21255;-64
2022/06/17 01:38:44;;;;;;;;;;;;;;;11.81;100.00;100466.84;1736258;81;21801;-60
2022/06/17 01:41:11;;;;;;;;;;;;;;;11.80;100.00;100470.45;1734469;81;21134;-57
2022/06/17 01:44:07;;;;;;;4.17;2.90;;;;;;;11.82;100.00;100471.09;1724994;82;20276;-66
2022/06/17 01:46:38;;;;;;;6.23;3.83;;;;;;;11.85;100.00;100473.84;1708667;83;21516;-59
2022/06/17 01:49:12;;;;;;;7.23;3.50;;;;;;;11.92;100.00;100479.94;1700770;82;21402;-57
2022/06/17 01:52:10;;;;;;;6.10;4.00;;;;;;;11.91;100.00;100477.03;1715646;81;22216;-58
2022/06/17 01:54:46;;;;;;;8.63;4.23;;;;;;;11.96;100.00;100475.16;1738067;81;21373;-65
2022/06/17 01:57:16;;;;;;;5.10;3.37;;;;;;;12.00;100.00;100481.13;1727637;82;21565;-57
2022/06/17 01:59:47;;;;;;;5.20;3.07;;;;;;;12.78;100.00;100478.53;1744428;80;21340;-66
2022/06/17 02:02:16;;;;;;;4.53;3.20;;;;;;;12.78;100.00;100478.53;1744195;81;21433;-66
2022/06/17 02:04:48;;;;;;;6.60;3.40;;;;;;;13.94;100.00;100475.97;1754404;80;21407;-57
2022/06/17 02:07:38;;;;;;;5.37;3.13;;;;;;;13.94;100.00;100475.97;1767776;80;21394;-58
2022/06/17 02:10:07;;;;;;;5.43;3.20;;;;;;;14.65;100.00;100472.78;1762807;80;21751;-65
2022/06/17 02:12:35;;;;;;;5.37;3.47;;;;;;;15.41;100.00;100476.09;1759513;80;21718;-59
2022/06/17 02:15:07;;;;;;;4.85;3.22;;;;;;;16.11;100.00;100463.78;1762508;80;21615;-58
2022/06/17 02:17:52;;;;;;;4.43;3.10;;;;;;;16.88;100.00;100462.98;1732679;80;21089;-58
2022/06/17 02:20:29;;;;;;;6.23;3.50;;;;;;;17.66;100.00;100463.55;1734864;81;21131;-57
2022/06/17 02:22:58;;;;;;;5.43;3.17;;;;;;;18.40;100.00;100454.00;1767528;80;21041;-59
2022/06/17 02:25:28;;;;;;;4.43;2.97;;;;;;;19.13;100.00;100464.54;1702752;81;21030;-64
2022/06/17 02:27:57;;;;;;;4.77;2.60;;;;;;;19.57;100.00;100457.72;1761685;80;21100;-57
2022/06/17 02:30:28;;;;;;;4.17;2.40;;;;;;;20.16;100.00;100452.91;1748713;80;27606;-57
2022/06/17 02:33:00;;;;;;;4.77;2.40;;;;;;;20.84;100.00;100454.16;1762044;80;21876;-60
2022/06/17 02:35:38;;;;;;;4.43;2.70;;;;;;;21.46;100.00;100449.04;1749248;80;21010;-55
2022/06/17 02:38:07;;;;;;;4.40;2.57;;;;;;;21.95;100.00;100451.60;1765201;80;20975;-56
2022/06/17 02:40:39;;;;;;;4.80;3.27;;;;;;;22.47;100.00;100455.72;1739131;80;21040;-58
2022/06/17 02:43:14;;;;;;;4.17;2.93;;;;;;;22.94;97.39;100462.08;1770395;80;21406;-63
2022/06/17 02:45:45;;;;;;;5.77;2.87;;;;;;;23.26;88.01;100462.73;1769937;80;21201;-56
2022/06/17 02:48:26;;;;;;;6.90;3.53;;;;;;;23.57;81.21;100458.00;1742897;80;21640;-56
2022/06/17 02:50:54;;;;;;;;;;;;;;;23.96;76.20;100465.76;1760225;80;22176;-61
2022/06/17 02:53:33;;;;;;;4.20;3.03;;;;;;;24.47;72.21;100459.59;1772812;80;20383;-55
2022/06/17 02:56:04;;;;;;;4.67;3.10;;;;;;;24.97;67.94;100454.63;1756101;80;20978;-63
2022/06/17 02:58:48;;;;;;;;;;;;;;;25.60;63.72;100450.00;1761465;80;22364;-57
2022/06/17 03:01:24;;;;;;;5.95;3.17;;;;;;;26.24;60.19;100453.50;1759468;80;20086;-57
2022/06/17 03:03:54;;;;;;;5.15;3.52;;;;;;;26.92;55.50;100450.61;1758693;80;21400;-57
2022/06/17 03:06:36;;;;;;;6.03;3.42;;;;;;;27.33;52.08;100454.65;1765861;80;21043;-57
2022/06/17 03:09:26;;;;;;;4.85;3.10;;;;;;;27.68;50.00;100447.95;1767411;80;20992;-57
2022/06/17 03:12:08;;;;;;;5.00;3.25;;;;;;;27.99;47.55;100451.48;1753229;80;21069;-63
2022/06/17 03:14:42;;;;;;;5.40;3.30;;;;;;;28.25;46.10;100441.89;1766618;80;21577;-56
2022/06/17 03:17:12;;;;;;;4.25;2.83;;;;;;;28.57;45.16;100448.31;1766309;80;20924;-55
2022/06/17 03:19:39;;;;;;;4.67;3.17;;;;;;;28.76;43.50;100440.94;1745413;80;21045;-57
2022/06/17 03:22:09;;;;;;;6.42;3.30;;;;;;;28.86;43.34;100446.07;1769155;80;21478;-56
2022/06/17 03:25:01;;;;;;;5.55;3.12;;;;;;;29.12;43.45;100443.42;1733478;80;21300;-57
2022/06/17 03:27:57;;;;;;;4.08;3.00;;;;;;;29.53;42.76;100444.63;1774100;80;20876;-58
2022/06/17 03:30:39;;;;;;;4.70;3.30;;;;;;;30.01;41.29;100446.70;1747980;80;21084;-58
2022/06/17 03:33:17;;;;;;;7.30;3.70;;;;;;;30.47;40.27;100444.14;1759811;80;21070;-57
2022/06/17 03:35:45;;;;;;;6.17;3.27;;;;;;;30.89;39.37;100448.62;1728803;82;21054;-59
2022/06/17 03:38:34;;;;;;;4.95;3.30;;;;;;;31.31;38.39;100441.70;1757987;80;21836;-60
2022/06/17 03:41:23;;;;;;;6.83;4.15;;;;;;;31.68;37.21;100442.92;1734596;80;21509;-56
2022/06/17 03:43:56;;;;;;;4.62;3.50;;;;;;;31.99;36.63;100441.92;1760970;80;21003;-58
2022/06/17 03:46:24;;;;;;;4.28;2.87;;;;;;;32.38;35.75;100444.84;1773895;80;22368;-56
2022/06/17 03:49:06;;;;;;;5.40;3.00;;;;;;;32.75;34.76;100440.31;1765260;80;21054;-58
2022/06/17 03:51:35;;;;;;;4.97;3.00;;;;;;;33.16;33.98;100439.56;1715279;82;21444;-58
2022/06/17 03:54:05;;;;;;;3.72;2.85;;;;;;;33.51;32.92;100435.22;1742929;81;21052;-58
2022/06/17 03:56:34;;;;;;;3.10;2.50;;;;;;;33.87;32.42;100436.67;1765193;80;21016;-56
2022/06/17 03:59:07;;;;;;;3.70;2.47;;;;;;;34.17;31.88;100432.98;1769059;80;21069;-61
2022/06/17 04:01:42;;;;;;;3.10;2.52;;;;;;;34.47;31.45;100425.42;1765428;80;22002;-65
2022/06/17 04:04:27;;;;;;;3.00;2.10;;;;;;;34.61;30.65;100429.39;1759098;80;21857;-56
2022/06/17 04:06:57;;;;;;;4.65;2.75;;;;;;;34.79;30.50;100428.57;1780582;80;21037;-63
2022/06/17 04:09:29;;;;;;;3.22;2.37;;;;;;;35.05;29.92;100434.17;1778670;80;21399;-57
2022/06/17 04:12:08;;;;;;;4.62;2.47;;;;;;;35.24;29.56;100432.19;1739006;81;20891;-57
2022/06/17 04:15:03;;;;;;;4.55;3.27;;;;;;;35.21;29.39;100429.59;1767167;80;21043;-56
2022/06/17 04:17:43;;;;;;;5.25;2.80;;;;;;;35.24;29.16;100435.68;1770156;80;21400;-56
2022/06/17 04:20:20;;;;;;;;;;;;;;;35.10;29.14;100436.06;1764402;79;21310;-63
2022/06/17 04:22:50;;;;;;;3.85;3.00;;;;;;;35.08;29.44;100430.75;1782845;79;20493;-57
2022/06/17 04:25:38;;;;;;;4.28;3.42;;;;;;;35.25;28.99;100427.77;1788994;79;21622;-57
2022/06/17 04:28:08;;;;;;;4.70;2.87;;;;;;;35.36;28.98;100430.77;1756267;80;21027;-56
2022/06/17 04:30:41;;;;;;;4.95;2.90;;;;;;;35.58;28.36;100427.52;1713166;83;21200;-56
2022/06/17 04:33:27;;;;;;;5.70;2.95;;;;;;;35.54;28.52;100427.22;1763694;80;20982;-57
2022/06/17 04:36:01;;;;;;;4.87;3.22;;;;;;;35.77;28.28;100425.48;1747049;80;21657;-58
2022/06/17 04:38:31;;;;;;;6.62;3.70;;;;;;;36.12;27.96;100432.95;1755115;80;20965;-57
2022/06/17 04:41:02;;;;;;;5.15;4.53;;;;;;;36.44;27.38;100427.45;1696497;83;21066;-56
2022/06/17 04:43:40;;;;;;;5.22;4.05;;;;;;;36.64;26.61;100429.12;1771738;79;21664;-63
2022/06/17 04:46:14;;;;;;;6.62;4.65;;;;;;;36.66;26.59;100423.31;1760638;80;21359;-56
2022/06/17 04:48:42;;;;;;;6.20;4.33;;;;;;;36.86;26.72;100429.55;1767523;79;20989;-56
2022/06/17 04:51:11;;;;;;;5.93;4.27;;;;;;;37.15;26.35;100429.59;1773748;80;21043;-57
2022/06/17 04:53:42;;;;;;;5.17;4.17;;;;;;;37.36;25.60;100427.28;1682768;83;21260;-57
2022/06/17 04:56:36;;;;;;;6.60;4.85;;;;;;;37.44;25.66;100422.21;1720357;80;21279;-58
2022/06/17 04:59:30;;;;;;;5.53;4.10;;;;;;;37.66;25.63;100425.32;1750029;80;21149;-56
2022/06/17 05:01:59;;;;;;;8.80;6.45;;;;;;;38.05;24.97;100421.89;1750741;80;21034;-58
2022/06/17 05:04:32;;;;;;;7.20;5.78;;;;;;;38.30;24.49;100414.66;1753417;80;21421;-58
2022/06/17 05:07:00;;;;;;;9.05;4.15;;;;;;;38.36;24.26;100412.66;1757293;80;21355;-56
2022/06/17 05:09:37;;;;;;;5.30;4.67;;;;;;;38.42;24.29;100412.55;1745548;81;22384;-57
2022/06/17 05:12:07;;;;;;;5.03;4.12;;;;;;;38.57;24.06;100415.48;1723189;81;21525;-58
2022/06/17 05:14:54;;;;;;;4.33;3.42;;;;;;;38.75;23.91;100416.46;1749357;80;21485;-59
2022/06/17 05:17:22;;;;;;;5.30;3.45;;;;;;;38.88;23.80;100414.33;1769440;80;21039;-61
2022/06/17 05:19:51;;;;;;;5.03;3.62;;;;;;;39.14;23.05;100412.09;1762021;80;21047;-58
2022/06/17 05:22:39;;;;;;;5.62;3.45;;;;;;;39.13;23.43;100414.02;1763644;80;22247;-57
2022/06/17 05:25:15;;;;;;;4.62;3.37;;;;;;;39.32;22.91;100414.43;1761605;80;21057;-65
2022/06/17 05:27:44;;;;;;;5.55;3.75;;;;;;;39.57;22.61;100411.17;1777782;80;21432;-57
2022/06/17 05:30:12;;;;;;;4.90;3.95;;;;;;;39.62;22.20;100404.77;1777667;80;21054;-57
2022/06/17 05:32:43;;;;;;;3.65;3.20;;;;;;;39.75;21.80;100410.77;1744634;81;20996;-56
2022/06/17 05:35:10;;;;;;;11.38;3.45;;;;;;;39.89;21.79;100408.16;1763427;80;21524;-57
2022/06/17 05:37:38;;;;;;;4.58;3.25;;;;;;;40.02;21.79;100410.00;1756902;80;21456;-58
2022/06/17 05:40:08;;;;;;;6.15;3.15;;;;;;;40.21;21.75;100402.16;1761786;81;20999;-56
2022/06/17 05:42:37;;;;;;;;;;;;;;;40.53;21.44;100411.09;1749994;81;21469;-58
2022/06/17 05:45:07;;;;;;;4.62;2.42;;;;;;;40.50;21.01;100413.22;1736330;81;20205;-57
2022/06/17 05:47:46;;;;;;;3.60;2.98;;;;;;;40.52;20.92;100409.53;1747272;81;21244;-57
2022/06/17 05:50:16;;;;;;;3.37;2.60;;;;;;;40.50;21.24;100407.75;1748938;80;21453;-56
2022/06/17 05:52:53;;;;;;;;;;;;;;;40.50;21.24;100407.75;1767404;80;20936;-58
2022/06/17 05:55:37;;;;;;;3.27;2.08;;;;;;;40.49;21.33;100402.09;1759637;80;20422;-56
2022/06/17 05:58:05;;;;;;;2.75;2.12;;;;;;;40.64;20.35;100402.39;1772428;80;21007;-59
2022/06/17 06:00:33;;;;;;;3.65;2.20;;;;;;;40.57;20.19;100399.03;1768598;80;21213;-56
2022/06/17 06:03:03;;;;;;;3.15;1.95;;;;;;;40.51;20.13;100399.19;1765605;80;20930;-59
2022/06/17 06:05:33;;;;;;;2.80;2.00;;;;;;;40.60;20.03;100398.86;1751228;80;21006;-57
2022/06/17 06:08:02;;;;;;;2.98;1.90;;;;;;;40.53;19.73;100397.43;1768564;80;20975;-64
2022/06/17 06:10:30;;;;;;;4.53;2.40;;;;;;;40.32;19.96;100394.03;1751363;80;21483;-65
2022/06/17 06:12:57;;;;;;;2.77;2.00;;;;;;;40.45;20.14;100392.52;1763451;80;21205;-57
2022/06/17 06:15:42;;;;;;;3.12;1.65;;;;;;;40.68;19.66;100394.98;1749127;80;20971;-57
2022/06/17 06:18:24;;;;;;;3.87;3.25;;;;;;;40.97;19.04;100386.89;1753054;80;21423;-62
2022/06/17 06:20:52;;;;;;;2.55;2.08;;;;;;;41.21;18.67;100385.39;1767804;80;21062;-57
2022/06/17 06:23:19;;;;;;;2.85;1.98;;;;;;;41.12;18.43;100387.73;1768906;80;21064;-56
2022/06/17 06:25:47;;;;;;;5.72;2.10;;;;;;;40.80;18.57;100380.19;1761130;80;22178;-57
2022/06/17 06:28:18;;;;;;;5.12;1.80;;;;;;;40.78;18.53;100379.81;1732553;82;21050;-62
2022/06/17 06:31:05;;;;;;;2.15;1.55;;;;;;;40.78;18.22;100380.59;1736270;81;21453;-56
2022/06/17 06:33:32;;;;;;;5.55;1.70;;;;;;;40.66;18.42;100376.84;1749148;80;21489;-59
2022/06/17 06:36:00;;;;;;;2.77;1.30;;;;;;;40.78;18.78;100380.59;1767735;80;21811;-62
2022/06/17 06:38:27;;;;;;;3.08;1.47;;;;;;;40.75;17.87;100375.88;1718597;82;22247;-56
2022/06/17 06:40:56;;;;;;;3.33;1.67;;;;;;;40.52;18.21;100377.52;1759241;81;21028;-56
2022/06/17 06:43:24;;;;;;;;;;;;;;;40.20;18.57;100374.66;1730773;81;21055;-57
2022/06/17 06:46:13;;;;;;;3.75;1.42;;;;;;;40.15;18.74;100365.44;1734473;81;20537;-56
2022/06/17 06:48:43;;;;;;;4.95;1.50;;;;;;;40.15;18.42;100365.44;1756273;81;20910;-56
2022/06/17 06:51:10;;;;;;;1.98;1.07;;;;;;;40.00;18.03;100369.22;1781839;80;21183;-56
2022/06/17 06:53:38;;;;;;;2.47;1.17;;;;;;;39.58;18.74;100364.41;1742297;81;20994;-59
2022/06/17 06:56:06;;;;;;;1.98;1.10;;;;;;;39.54;18.70;100365.54;1760341;80;22204;-57
2022/06/17 06:58:35;;;;;;;1.75;1.20;;;;;;;39.29;18.51;100366.12;1764744;80;20986;-62
2022/06/17 07:01:05;;;;;;;3.47;1.30;;;;;;;39.12;18.84;100366.11;1761391;80;21070;-57
2022/06/17 07:03:32;;;;;;;1.72;1.02;;;;;;;39.21;18.26;100361.73;1770048;80;21130;-59
2022/06/17 07:06:02;;;;;;;1.75;1.10;;;;;;;39.27;18.18;100365.70;1754508;81;21550;-56
2022/06/17 07:08:34;;;;;;;2.22;1.40;;;;;;;39.47;17.72;100361.38;1709528;83;21626;-58
2022/06/17 07:11:01;;;;;;;2.47;1.00;;;;;;;39.49;18.28;100349.53;1740517;80;21558;-59
2022/06/17 07:13:30;;;;;;;1.40;1.00;;;;;;;39.46;16.84;100353.00;1734837;81;21004;-56
2022/06/17 07:15:59;;;;;;;1.47;0.80;;;;;;;39.15;16.90;100354.45;1742331;81;20998;-58
2022/06/17 07:18:30;;;;;;;2.10;1.15;;;;;;;39.04;17.19;100358.23;1705942;84;21070;-56
2022/06/17 07:20:59;;;;;;;;;;;;;;;39.33;16.77;100350.57;1726462;82;20991;-56
2022/06/17 07:23:34;;;;;;;2.25;1.20;;;;;;;39.39;17.37;100349.05;1730494;81;20198;-57
2022/06/17 07:26:16;;;;;;;2.25;1.10;;;;;;;39.56;17.05;100346.28;1704188;83;21541;-56
2022/06/17 07:28:44;;;;;;;1.57;1.07;;;;;;;39.51;17.49;100346.61;1738899;81;21249;-58
2022/06/17 07:31:11;;;;;;;2.08;1.10;;;;;;;39.43;17.66;100339.53;1741081;80;21102;-63
2022/06/17 07:33:40;;;;;;;2.30;1.30;;;;;;;39.30;17.36;100339.05;1724185;82;21266;-56
2022/06/17 07:36:09;;;;;;;2.55;1.10;;;;;;;39.37;18.12;100342.42;1718280;82;21617;-56
2022/06/17 07:41:25;;;;;;;1.82;1.02;;;;;;;40.29;17.02;100338.80;1736159;81;21854;-57
2022/06/17 07:43:52;;;;;;;1.85;1.02;;;;;;;40.74;16.65;100333.33;1733912;81;20989;-56
2022/06/17 07:46:19;;;;;;;1.57;1.00;;;;;;;41.03;16.31;100334.20;1714120;81;21045;-56
2022/06/17 07:48:46;;;;;;;1.80;1.00;;;;;;;41.16;16.17;100337.92;1740909;80;21501;-58
2022/06/17 07:51:13;;;;;;;2.05;1.02;;;;;;;41.18;15.74;100340.48;1739720;80;21779;-62
2022/06/17 07:53:42;;;;;;;2.08;1.10;;;;;;;40.86;15.73;100329.45;1742956;81;21345;-56
2022/06/17 07:56:13;;;;;;;2.22;1.17;;;;;;;40.47;16.55;100335.56;1739385;81;21037;-55
2022/06/17 07:58:41;;;;;;;2.50;1.00;;;;;;;40.27;16.16;100332.36;1743188;81;20930;-57
2022/06/17 08:01:11;;;;;;;1.40;0.95;;;;;;;39.55;16.66;100330.27;1750433;81;21163;-57
2022/06/17 08:03:38;;;;;;;2.65;1.22;;;;;;;38.69;17.17;100331.56;1708872;82;21457;-55
2022/06/17 08:06:05;;;;;;;3.42;1.52;;;;;;;38.00;17.80;100331.05;1745645;80;21253;-56
2022/06/17 08:08:34;;;;;;;5.10;0.95;;;;;;;37.36;18.55;100333.48;1763887;80;21568;-61
2022/06/17 08:11:02;;;;;;;1.77;1.07;;;;;;;37.12;18.65;100335.95;1761005;80;20845;-58
2022/06/17 08:13:29;;;;;;;4.60;1.52;;;;;;;37.29;19.03;100334.72;1764776;80;21517;-56
2022/06/17 08:16:00;;;;;;;3.37;1.30;;;;;;;37.61;18.45;100331.77;1758446;80;20967;-56
2022/06/17 08:18:29;;;;;;;2.35;1.12;;;;;;;38.01;18.22;100331.24;1760707;80;20961;-63
2022/06/17 08:20:56;;;;;;;1.85;1.30;;;;;;;38.56;17.69;100326.72;1751831;80;20927;-62
2022/06/17 08:23:23;;;;;;;1.40;1.00;;;;;;;38.91;17.30;100325.80;1760455;80;21873;-56
2022/06/17 08:25:51;;;;;;;2.42;1.40;;;;;;;39.25;17.36;100320.31;1756806;80;21106;-55
2022/06/17 08:28:18;;;;;;;2.33;1.22;;;;;;;39.38;17.03;100324.30;1768111;80;21106;-55
2022/06/17 08:30:51;;;;;;;2.08;1.27;;;;;;;39.14;16.95;100322.91;1769787;80;21258;-62
2022/06/17 08:33:38;;;;;;;2.22;1.12;;;;;;;38.60;17.83;100324.81;1734681;81;21878;-55
2022/06/17 08:35:52;;;;;;;4.22;1.15;;;;;;;37.56;18.63;100326.64;1733564;81;21048;-57
2022/06/17 08:38:23;;;;;;;2.17;1.17;;;;;;;36.62;19.50;100330.12;1755888;81;21008;-55
2022/06/17 08:41:02;;;;;;;1.82;1.32;;;;;;;36.06;20.49;100333.37;1760747;80;20972;-59
2022/06/17 08:43:41;;;;;;;2.15;1.30;;;;;;;35.87;20.16;100331.93;1778062;80;21094;-55
2022/06/17 08:46:50;;;;;;;3.72;2.05;;;;;;;35.81;20.62;100330.07;1766955;80;21046;-56
2022/06/17 08:50:00;;;;;;;2.27;1.40;;;;;;;35.76;20.73;100324.11;1769720;80;21525;-55
2022/06/17 08:52:51;;;;;;;;;;;;;;;35.74;21.60;100325.05;1776955;80;20980;-57
2022/06/17 08:55:47;;;;;;;2.20;1.47;;;;;;;36.32;20.92;100325.20;1749497;80;20196;-62
2022/06/17 08:58:51;;;;;;;2.77;1.32;;;;;;;37.01;19.57;100311.87;1765993;80;21156;-57
2022/06/17 09:01:30;;;;;;;2.27;1.30;;;;;;;37.77;18.87;100316.65;1763688;80;21104;-56
2022/06/17 09:04:28;;;;;;;1.98;1.20;;;;;;;38.41;17.76;100319.73;1765841;80;21547;-58
2022/06/17 09:07:21;;;;;;;2.75;1.32;;;;;;;38.66;17.96;100315.95;1754913;80;21043;-56
2022/06/17 09:10:14;;;;;;;4.72;1.85;;;;;;;38.97;17.20;100314.55;1778236;80;21017;-56
2022/06/17 09:12:52;;;;;;;2.55;1.55;;;;;;;38.69;17.57;100317.94;1741125;81;21226;-58
2022/06/17 09:15:40;;;;;;;2.30;1.32;;;;;;;38.35;18.43;100310.34;1755259;80;21825;-57
2022/06/17 09:18:30;;;;;;;1.92;1.17;;;;;;;38.36;18.26;100316.56;1756807;80;21518;-58
2022/06/17 09:21:06;;;;;;;3.35;1.40;;;;;;;38.45;18.01;100316.50;1772375;80;21446;-57
2022/06/17 09:23:36;;;;;;;2.25;1.30;;;;;;;38.29;17.95;100314.50;1757320;80;21486;-56
2022/06/17 09:26:13;;;;;;;3.47;1.40;;;;;;;37.98;18.01;100318.36;1774360;80;21361;-58
2022/06/17 09:28:44;;;;;;;2.55;1.22;;;;;;;37.70;18.45;100311.91;1760045;80;21038;-58
2022/06/17 09:31:19;;;;;;;2.47;1.50;;;;;;;37.14;18.46;100311.15;1769048;80;22195;-57
2022/06/17 09:33:51;;;;;;;4.25;2.27;;;;;;;36.31;19.66;100319.57;1764575;80;21076;-57
2022/06/17 09:36:32;;;;;;;8.43;2.65;;;;;;;35.53;19.93;100319.31;1777038;80;20997;-58
2022/06/17 09:39:11;;;;;;;3.72;2.58;;;;;;;34.90;20.47;100316.48;1766539;80;21226;-57
2022/06/17 09:41:57;;;;;;;3.08;2.10;;;;;;;34.45;20.60;100320.78;1758281;80;20995;-64
2022/06/17 09:44:47;;;;;;;2.47;1.40;;;;;;;34.20;21.40;100324.09;1761428;80;21070;-56
2022/06/17 09:47:25;;;;;;;2.67;1.75;;;;;;;34.46;20.95;100323.14;1729739;80;21521;-61
2022/06/17 09:49:57;;;;;;;3.12;1.98;;;;;;;34.87;20.50;100318.52;1772244;80;21346;-55
2022/06/17 09:52:34;;;;;;;3.37;2.02;;;;;;;34.92;20.02;100316.91;1772359;80;21987;-55
2022/06/17 09:55:21;;;;;;;3.30;2.08;;;;;;;34.77;20.64;100321.71;1739541;80;20999;-62
2022/06/17 09:58:00;;;;;;;3.02;2.20;;;;;;;34.44;20.87;100317.84;1761479;80;21341;-56
2022/06/17 10:00:35;;;;;;;2.80;1.70;;;;;;;34.19;21.42;100316.55;1769490;80;21063;-63
2022/06/17 10:03:22;;;;;;;2.92;1.60;;;;;;;34.01;21.54;100311.16;1764957;80;21323;-55
2022/06/17 10:06:14;;;;;;;3.50;1.40;;;;;;;33.81;21.91;100308.20;1748321;80;22141;-56
2022/06/17 10:08:53;;;;;;;2.30;1.35;;;;;;;34.03;22.11;100302.16;1759387;80;21039;-56
2022/06/17 10:11:58;;;;;;;3.75;1.72;;;;;;;34.07;21.36;100297.06;1770244;80;21029;-56
2022/06/17 10:15:22;;;;;;;2.87;1.40;;;;;;;34.05;22.47;100300.66;1727419;80;20978;-56
2022/06/17 10:18:32;;;;;;;3.25;1.60;;;;;;;34.33;22.25;100304.80;1749143;81;21103;-56
2022/06/17 10:21:16;;;;;;;2.00;1.25;;;;;;;34.38;22.41;100299.70;1756583;80;21839;-57
2022/06/17 10:24:07;;;;;;;2.83;1.70;;;;;;;34.22;22.91;100304.27;1698627;82;20918;-58
2022/06/17 10:27:08;;;;;;;2.17;1.10;;;;;;;33.96;22.41;100301.33;1769570;80;20994;-56
2022/06/17 10:30:08;;;;;;;2.10;0.95;;;;;;;33.57;23.00;100302.23;1775665;80;21567;-56
2022/06/17 10:32:43;;;;;;;4.37;1.40;;;;;;;33.28;22.96;100296.98;1752510;80;20896;-61
2022/06/17 10:35:26;;;;;;;2.58;1.52;;;;;;;33.22;23.31;100299.66;1780613;80;21218;-57
2022/06/17 10:37:53;;;;;;;2.15;1.30;;;;;;;33.17;22.59;100293.35;1702316;82;21018;-56
2022/06/17 10:40:22;;;;;;;1.98;1.42;;;;;;;33.27;22.58;100292.14;1690765;80;20999;-65
2022/06/17 10:42:50;;;;;;;1.87;1.07;;;;;;;33.65;22.80;100287.83;1768614;80;21380;-56
2022/06/17 10:45:17;;;;;;;3.80;1.40;;;;;;;34.07;21.86;100290.30;1774433;80;21052;-57
2022/06/17 10:48:04;;;;;;;2.00;1.25;;;;;;;34.25;22.40;100284.08;1717497;82;21907;-57
2022/06/17 10:50:33;;;;;;;3.00;1.55;;;;;;;34.46;21.88;100284.46;1766327;80;21346;-55
2022/06/17 10:53:24;;;;;;;3.92;1.17;;;;;;;34.52;22.08;100292.61;1779757;80;20988;-56
2022/06/17 10:55:58;;;;;;;4.22;1.32;;;;;;;34.34;22.09;100281.23;1754183;80;21110;-63
2022/06/17 10:58:29;;;;;;;3.10;1.60;;;;;;;34.05;22.32;100277.67;1750056;80;22110;-55
2022/06/17 11:01:02;;;;;;;2.65;1.60;;;;;;;33.77;22.20;100277.56;1768619;80;21869;-56
2022/06/17 11:03:40;;;;;;;2.83;1.80;;;;;;;33.51;22.16;100278.47;1766553;80;21055;-57
2022/06/17 11:06:25;;;;;;;4.00;1.50;;;;;;;33.25;22.84;100271.98;1712166;83;21952;-55
2022/06/17 11:09:00;;;;;;;2.60;1.20;;;;;;;32.97;23.21;100276.66;1743573;80;21481;-58
2022/06/17 11:14:50;;;;;;;3.47;1.10;;;;;;;32.50;22.91;100276.88;1754756;80;21171;-56
2022/06/17 11:17:40;;;;;;;3.12;1.40;;;;;;;32.28;23.01;100270.42;1776287;80;21452;-61
2022/06/17 11:20:18;;;;;;;2.05;1.20;;;;;;;32.26;24.18;100278.06;1778530;80;21489;-61
2022/06/17 11:22:52;;;;;;;4.40;1.37;;;;;;;32.33;23.68;100268.89;1758475;80;21386;-57
2022/06/17 11:25:36;;;;;;;1.45;1.20;;;;;;;32.38;23.90;100267.34;1764332;81;21592;-57
2022/06/17 11:28:28;;;;;;;2.10;1.10;;;;;;;32.10;24.37;100261.68;1758040;80;22273;-59
2022/06/17 11:31:08;;;;;;;2.42;1.25;;;;;;;32.10;24.37;100261.68;1764406;80;20952;-55
2022/06/17 11:33:55;;;;;;;2.30;1.27;;;;;;;32.02;24.22;100263.31;1749205;80;20983;-63
2022/06/17 11:36:28;;;;;;;2.95;1.30;;;;;;;31.95;24.20;100260.34;1754252;80;21047;-55
2022/06/17 11:39:17;;;;;;;2.08;1.07;;;;;;;31.94;23.81;100260.12;1760470;80;21067;-57
2022/06/17 11:41:44;;;;;;;1.70;1.10;;;;;;;31.84;24.61;100269.89;1752386;80;21163;-55
2022/06/17 11:44:16;;;;;;;2.15;1.20;;;;;;;31.81;24.56;100265.14;1752985;80;20992;-55
2022/06/17 11:46:52;;;;;;;2.25;1.20;;;;;;;31.73;24.93;100267.55;1749667;80;21004;-63
2022/06/17 11:49:20;;;;;;;2.35;0.98;;;;;;;31.64;25.09;100258.73;1771347;80;21062;-55
2022/06/17 11:52:01;;;;;;;2.58;1.20;;;;;;;31.57;25.21;100259.80;1769125;80;20963;-57
2022/06/17 11:54:35;;;;;;;1.60;1.20;;;;;;;31.77;24.58;100261.52;1755463;80;22323;-59
2022/06/17 11:57:30;;;;;;;1.80;1.20;;;;;;;32.01;24.30;100249.58;1771316;80;21037;-58
2022/06/17 11:59:59;;;;;;;2.25;1.05;;;;;;;32.40;24.62;100157.23;1772350;80;21461;-61
2022/06/17 12:02:27;;;;;;;2.67;1.40;;;;;;;32.94;23.99;100241.64;1769460;80;20991;-55
2022/06/17 12:05:15;;;;;;;3.00;1.20;;;;;;;33.35;23.39;100239.13;1767333;80;21536;-58
2022/06/17 12:08:10;;;;;;;2.80;1.40;;;;;;;33.23;22.91;100239.91;1753275;80;22052;-58
2022/06/17 12:10:50;;;;;;;2.15;1.32;;;;;;;32.80;23.02;100240.33;1750701;80;21117;-57
2022/06/17 12:13:42;;;;;;;2.67;1.30;;;;;;;32.30;23.82;100239.88;1753045;80;21787;-63